createdAt,value
2017-11-13T00:00:41.067Z,995.73
2017-11-13T00:01:40.971Z,995.77
2017-11-13T00:03:35.489Z,995.77
2017-11-13T00:04:35.460Z,995.75
2017-11-13T00:06:28.011Z,995.82
2017-11-13T00:07:28.081Z,995.85
2017-11-13T00:09:22.623Z,995.87
2017-11-13T00:10:20.652Z,995.87
2017-11-13T00:12:15.077Z,995.83
2017-11-13T00:13:16.150Z,995.84
2017-11-13T00:15:09.721Z,995.93
2017-11-13T00:16:08.930Z,995.97
2017-11-13T00:18:02.229Z,995.96
2017-11-13T00:19:03.284Z,995.98
2017-11-13T00:20:56.856Z,995.98
2017-11-13T00:21:56.858Z,995.99
2017-11-13T00:23:49.516Z,995.98
2017-11-13T00:24:50.448Z,996.00
2017-11-13T00:26:43.385Z,996.07
2017-11-13T00:27:42.094Z,996.06
2017-11-13T00:29:36.555Z,996.11
2017-11-13T00:30:37.542Z,996.14
2017-11-13T00:32:31.140Z,996.19
2017-11-13T00:33:31.152Z,996.20
2017-11-13T00:35:23.676Z,996.21
2017-11-13T00:36:24.700Z,996.17
2017-11-13T00:38:18.147Z,996.19
2017-11-13T00:39:18.297Z,996.21
2017-11-13T00:41:10.916Z,996.24
2017-11-13T00:42:10.945Z,996.30
2017-11-13T00:44:05.376Z,996.33
2017-11-13T00:45:03.488Z,996.26
2017-11-13T00:46:57.995Z,996.30
2017-11-13T00:47:58.031Z,996.38
2017-11-13T00:49:51.437Z,996.43
2017-11-13T00:50:52.514Z,996.42
2017-11-13T00:52:45.161Z,996.44
2017-11-13T00:53:45.212Z,996.43
2017-11-13T00:55:39.531Z,996.43
2017-11-13T00:56:39.635Z,996.42
2017-11-13T00:58:32.309Z,996.50
2017-11-13T00:59:33.248Z,996.47
2017-11-13T01:01:26.780Z,996.52
2017-11-13T01:02:25.013Z,996.54
2017-11-13T01:04:19.461Z,996.54
2017-11-13T01:05:21.255Z,996.60
2017-11-13T01:07:13.317Z,996.65
2017-11-13T01:08:13.022Z,996.64
2017-11-13T01:10:06.459Z,996.62
2017-11-13T01:11:07.495Z,996.65
2017-11-13T01:12:59.861Z,996.66
2017-11-13T01:14:01.072Z,996.68
2017-11-13T01:15:53.462Z,996.69
2017-11-13T01:16:54.597Z,996.71
2017-11-13T01:18:47.011Z,996.68
2017-11-13T01:19:48.137Z,996.70
2017-11-13T01:21:40.831Z,996.74
2017-11-13T01:22:41.703Z,996.75
2017-11-13T01:24:35.149Z,996.77
2017-11-13T01:25:35.259Z,996.82
2017-11-13T01:27:27.819Z,996.85
2017-11-13T01:28:28.834Z,996.89
2017-11-13T01:30:22.410Z,996.86
2017-11-13T01:31:21.563Z,996.91
2017-11-13T01:33:15.079Z,996.91
2017-11-13T01:34:15.102Z,996.89
2017-11-13T01:36:08.417Z,996.94
2017-11-13T01:37:07.564Z,996.98
2017-11-13T01:39:02.307Z,997.00
2017-11-13T01:40:02.142Z,996.98
2017-11-13T01:41:56.725Z,997.02
2017-11-13T01:42:55.763Z,997.03
2017-11-13T01:44:49.122Z,997.01
2017-11-13T01:45:50.228Z,997.03
2017-11-13T01:47:42.687Z,997.00
2017-11-13T01:48:43.800Z,997.04
2017-11-13T01:50:34.808Z,997.05
2017-11-13T01:51:37.429Z,997.06
2017-11-13T01:53:30.970Z,997.06
2017-11-13T01:54:30.966Z,997.07
2017-11-13T01:56:23.396Z,997.07
2017-11-13T01:57:24.485Z,997.13
2017-11-13T01:59:17.209Z,997.14
2017-11-13T02:00:18.049Z,997.17
2017-11-13T02:02:10.734Z,997.12
2017-11-13T02:03:11.612Z,997.11
2017-11-13T02:05:04.619Z,997.15
2017-11-13T02:06:04.232Z,997.15
2017-11-13T02:07:57.849Z,997.13
2017-11-13T02:08:58.830Z,997.15
2017-11-13T02:10:52.185Z,997.14
2017-11-13T02:11:52.345Z,997.18
2017-11-13T02:13:45.007Z,997.20
2017-11-13T02:14:46.806Z,997.23
2017-11-13T02:16:39.011Z,997.34
2017-11-13T02:17:39.477Z,997.46
2017-11-13T02:19:32.050Z,997.53
2017-11-13T02:20:33.894Z,997.49
2017-11-13T02:22:26.461Z,997.47
2017-11-13T02:23:26.606Z,997.49
2017-11-13T02:25:19.269Z,997.51
2017-11-13T02:26:20.066Z,997.52
2017-11-13T02:28:12.563Z,997.50
2017-11-13T02:29:11.781Z,997.49
2017-11-13T02:31:06.318Z,997.57
2017-11-13T02:32:07.290Z,997.55
2017-11-13T02:34:00.845Z,997.54
2017-11-13T02:35:00.853Z,997.55
2017-11-13T02:36:53.334Z,997.54
2017-11-13T02:37:54.436Z,997.51
2017-11-13T02:39:47.976Z,997.57
2017-11-13T02:40:47.941Z,997.52
2017-11-13T02:42:40.475Z,997.52
2017-11-13T02:43:41.583Z,997.55
2017-11-13T02:45:35.118Z,997.54
2017-11-13T02:46:33.167Z,997.55
2017-11-13T02:48:27.465Z,997.59
2017-11-13T02:49:28.667Z,997.58
2017-11-13T02:51:22.208Z,997.62
2017-11-13T02:52:22.227Z,997.64
2017-11-13T02:54:14.902Z,997.70
2017-11-13T02:55:14.836Z,997.73
2017-11-13T02:57:10.272Z,997.84
2017-11-13T02:58:09.331Z,997.86
2017-11-13T03:00:01.985Z,997.84
2017-11-13T03:01:02.007Z,997.84
2017-11-13T03:02:57.390Z,997.83
2017-11-13T03:05:49.151Z,997.91
2017-11-13T03:06:50.056Z,997.89
2017-11-13T03:08:43.618Z,997.93
2017-11-13T03:09:43.621Z,997.92
2017-11-13T03:11:37.073Z,998.01
2017-11-13T03:12:36.163Z,998.04
2017-11-13T03:14:29.802Z,998.01
2017-11-13T03:15:30.711Z,998.02
2017-11-13T03:17:24.316Z,998.14
2017-11-13T03:18:24.320Z,998.10
2017-11-13T03:20:16.959Z,998.09
2017-11-13T03:21:16.002Z,998.11
2017-11-13T03:23:11.457Z,998.13
2017-11-13T03:24:10.452Z,998.15
2017-11-13T03:26:03.869Z,998.20
2017-11-13T03:27:05.866Z,998.22
2017-11-13T03:28:58.528Z,998.28
2017-11-13T03:29:58.532Z,998.30
2017-11-13T03:31:51.201Z,998.37
2017-11-13T03:32:52.105Z,998.40
2017-11-13T03:34:45.592Z,998.48
2017-11-13T03:35:45.704Z,998.51
2017-11-13T03:37:38.318Z,998.53
2017-11-13T03:38:39.272Z,998.56
2017-11-13T03:40:32.623Z,998.50
2017-11-13T03:41:34.022Z,998.47
2017-11-13T03:43:25.479Z,998.54
2017-11-13T03:44:26.359Z,998.52
2017-11-13T03:46:19.802Z,998.56
2017-11-13T03:47:19.966Z,998.55
2017-11-13T03:49:12.628Z,998.61
2017-11-13T03:50:13.528Z,998.64
2017-11-13T03:52:07.093Z,998.66
2017-11-13T03:53:07.055Z,998.66
2017-11-13T03:54:59.755Z,998.74
2017-11-13T03:56:00.774Z,998.76
2017-11-13T03:57:54.108Z,998.87
2017-11-13T03:58:54.179Z,998.88
2017-11-13T04:00:48.361Z,998.89
2017-11-13T04:01:47.791Z,998.92
2017-11-13T04:03:41.308Z,998.99
2017-11-13T04:04:41.312Z,998.99
2017-11-13T04:06:33.960Z,998.96
2017-11-13T04:07:34.872Z,998.97
2017-11-13T04:09:26.364Z,998.97
2017-11-13T04:10:28.481Z,998.94
2017-11-13T04:12:21.013Z,999.00
2017-11-13T04:13:20.041Z,999.02
2017-11-13T04:15:14.412Z,999.02
2017-11-13T04:16:15.606Z,999.03
2017-11-13T04:18:08.145Z,999.09
2017-11-13T04:19:08.147Z,999.12
2017-11-13T04:21:02.745Z,999.09
2017-11-13T04:22:02.735Z,999.16
2017-11-13T04:23:55.190Z,999.17
2017-11-13T04:24:55.306Z,999.18
2017-11-13T04:26:48.698Z,999.20
2017-11-13T04:27:49.859Z,999.20
2017-11-13T04:29:42.456Z,999.20
2017-11-13T04:30:41.443Z,999.24
2017-11-13T04:32:36.388Z,999.23
2017-11-13T04:33:36.995Z,999.28
2017-11-13T04:35:29.295Z,999.34
2017-11-13T04:36:30.502Z,999.34
2017-11-13T04:38:21.965Z,999.41
2017-11-13T04:39:23.104Z,999.36
2017-11-13T04:41:16.681Z,999.39
2017-11-13T04:42:16.817Z,999.40
2017-11-13T04:44:10.049Z,999.41
2017-11-13T04:45:12.149Z,999.48
2017-11-13T04:47:02.512Z,999.49
2017-11-13T04:48:02.156Z,999.48
2017-11-13T04:49:58.339Z,999.50
2017-11-13T04:50:58.333Z,999.56
2017-11-13T04:52:50.992Z,999.60
2017-11-13T04:53:50.967Z,999.60
2017-11-13T04:55:45.465Z,999.58
2017-11-13T04:56:45.503Z,999.62
2017-11-13T04:58:37.864Z,999.67
2017-11-13T04:59:38.084Z,999.70
2017-11-13T05:01:32.557Z,999.65
2017-11-13T05:02:32.644Z,999.69
2017-11-13T05:04:25.131Z,999.77
2017-11-13T05:05:23.525Z,999.78
2017-11-13T05:07:19.754Z,999.84
2017-11-13T05:08:19.719Z,999.84
2017-11-13T05:10:12.346Z,999.86
2017-11-13T05:11:13.360Z,999.83
2017-11-13T05:13:06.845Z,999.87
2017-11-13T05:14:06.845Z,999.88
2017-11-13T05:15:59.493Z,999.90
2017-11-13T05:17:00.457Z,999.91
2017-11-13T05:18:52.854Z,999.94
2017-11-13T05:19:53.972Z,999.94
2017-11-13T05:21:46.651Z,999.97
2017-11-13T05:22:45.582Z,1000.01
2017-11-13T05:24:41.098Z,999.99
2017-11-13T05:25:40.247Z,999.96
2017-11-13T05:27:33.736Z,999.95
2017-11-13T05:28:34.703Z,999.98
2017-11-13T05:30:27.177Z,1000.01
2017-11-13T05:31:28.225Z,1000.04
2017-11-13T05:33:20.741Z,1000.09
2017-11-13T05:34:21.828Z,1000.07
2017-11-13T05:36:15.249Z,1000.06
2017-11-13T05:37:15.400Z,1000.14
2017-11-13T05:39:07.987Z,1000.16
2017-11-13T05:40:06.959Z,1000.20
2017-11-13T05:42:02.557Z,1000.19
2017-11-13T05:43:01.241Z,1000.23
2017-11-13T05:44:55.067Z,1000.28
2017-11-13T05:45:56.091Z,1000.33
2017-11-13T05:47:49.609Z,1000.38
2017-11-13T05:48:49.653Z,1000.41
2017-11-13T05:50:42.263Z,1000.42
2017-11-13T05:51:43.224Z,1000.46
2017-11-13T05:53:34.259Z,1000.47
2017-11-13T05:54:36.779Z,1000.52
2017-11-13T05:56:29.296Z,1000.58
2017-11-13T05:57:30.324Z,1000.58
2017-11-13T05:59:23.907Z,1000.62
